CDT,Max TemperatureF,Mean TemperatureF,Min TemperatureF,Max Dew PointF,MeanDew PointF,Min DewpointF,Max Humidity, Mean Humidity, Min Humidity, Max Sea Level PressureIn, Mean Sea Level PressureIn, Min Sea Level PressureIn, Max VisibilityMiles, Mean VisibilityMiles, Min VisibilityMiles, Max Wind SpeedMPH, Mean Wind SpeedMPH, Max Gust SpeedMPH,PrecipitationIn, CloudCover, Events, WindDirDegrees
2014-3-1,33,21,9,25,11,2,81,76,60,30.42,30.29,30.06,10,5,2,20,14,28,0.03,8,Snow,16
2014-3-2,9,5,1,2,-5,-12,77,65,48,30.59,30.50,30.38,10,5,0,20,14,26,0.08,6,Snow,6
2014-3-3,21,10,-2,6,-5,-14,60,51,35,30.62,30.51,30.32,10,10,10,13,7,,0.00,0,,38
2014-3-4,42,28,15,24,13,3,66,53,43,30.30,30.14,30.03,10,10,10,10,7,,0.00,0,,186
2014-3-5,45,36,27,27,25,23,85,72,49,30.30,30.20,30.10,10,7,2,13,4,,0.00,3,Snow,10
2014-3-6,50,37,24,31,26,19,84,66,46,30.30,30.15,29.98,10,7,3,10,5,,0.00,0,,136
2014-3-7,64,50,35,37,32,28,77,60,27,30.08,29.92,29.82,10,8,5,21,9,30,0.00,2,,202
2014-3-8,42,36,30,27,25,22,82,66,53,30.36,30.25,30.08,10,10,7,16,11,25,0.00,5,,360
2014-3-9,62,44,25,28,26,21,85,52,26,30.35,30.15,29.94,10,9,6,22,6,30,0.00,0,,216
2014-3-10,75,60,46,36,28,22,52,33,20,29.94,29.78,29.66,10,10,10,16,11,24,0.00,0,,226
2014-3-11,80,57,35,48,37,27,93,58,30,29.93,29.63,29.40,10,9,2,30,12,38,0.10,4,Rain-Snow-Thunderstorm,312
2014-3-12,55,44,33,33,27,22,89,58,30,30.21,30.11,29.97,10,10,7,17,12,28,0.02,2,Rain-Snow,325
2014-3-13,70,53,36,29,24,18,68,39,15,30.12,29.99,29.82,10,10,10,17,7,23,0.00,0,,226
2014-3-14,66,54,43,29,23,20,56,29,18,30.01,29.87,29.72,10,10,10,24,13,32,0.00,0,Rain,272
2014-3-15,75,55,37,46,36,22,86,50,26,29.99,29.88,29.77,10,9,2,23,7,30,0.38,2,Rain-Thunderstorm,170
2014-3-16,41,36,28,38,26,15,92,71,43,30.27,30.13,29.98,10,8,2,24,20,34,0.13,5,Rain-Snow,31
2014-3-17,53,36,21,25,19,13,72,50,31,30.11,29.84,29.62,10,10,10,16,8,24,0.00,0,,177
2014-3-18,64,54,44,36,32,23,65,46,34,29.62,29.51,29.44,10,10,10,17,11,30,0.00,1,,195
2014-3-19,55,46,37,35,27,21,76,52,27,30.13,30.01,29.66,10,9,7,16,11,30,0.00,4,,296
2014-3-20,73,54,37,41,27,23,60,36,16,30.11,29.96,29.81,10,10,10,23,8,36,0.00,0,,221
2014-3-21,64,56,45,32,29,23,56,37,23,30.14,29.87,29.77,10,10,10,20,9,30,0.00,0,,288
2014-3-22,46,38,30,27,15,7,69,43,20,30.48,30.31,30.17,10,10,10,20,14,25,0.00,1,,7
2014-3-23,43,34,25,22,14,6,81,53,26,30.56,30.47,30.34,10,8,2,13,9,21,0.00,3,Snow,29
2014-3-24,37,34,30,31,23,10,89,68,37,30.34,30.26,30.21,10,6,1,9,5,,0.00,6,Snow,354
2014-3-25,42,35,28,28,14,5,85,49,22,30.41,30.32,30.26,10,10,5,20,6,29,0.00,1,,323
2014-3-26,61,46,32,39,25,10,82,53,25,30.24,30.00,29.75,10,9,5,28,11,41,0.07,4,Rain,169
2014-3-27,72,55,39,53,42,29,82,68,43,29.83,29.57,29.33,10,10,9,25,16,43,0.00,6,Rain-Thunderstorm,213
2014-3-28,51,44,37,35,31,29,76,64,50,30.18,30.03,29.85,10,10,9,13,7,22,0.00,4,,13
2014-3-29,57,46,34,34,29,27,82,58,32,30.33,30.24,30.19,10,10,7,12,7,,0.00,1,,15
2014-3-30,75,59,43,35,32,29,63,38,22,30.20,29.99,29.81,10,10,9,24,12,30,0.00,0,,181
2014-3-31,80,62,39,46,37,17,45,37,14,29.99,29.69,29.56,10,10,10,26,19,40,0.00,0,Rain-Thunderstorm,211